Terminal Aerodrome Forecast
Issued by NWS Charleston, WV

Current Version | Previous Version | Graphics & Text | Print | Product List | Glossary On
Versions: 1 2 3 4 5 6 7 8 9 10 11 12 13 14 15 16 17 18 19 20 21
000
FTUS41 KRLX 131120
TAFPKB
TAF
KPKB 131120Z 1312/1412 27007KT P6SM SCT050
     FM131500 25008G14KT P6SM BKN070
     FM140400 24009KT P6SM OVC045
     FM140600 25010KT P6SM -SHSN OVC020=

USA.gov is the U.S. government's official web portal to all federal, state and local government web resources and services.